sensor_id;sensor_type;location;lat;lon;timestamp;pressure;altitude;pressure_sealevel;temperature;humidity
49779;BME280;36217;60.232;24.776;2022-12-29T00:01:37;100482.40;;;-2.18;100.00
49779;BME280;36217;60.232;24.776;2022-12-29T00:04:04;100484.01;;;-2.04;100.00
49779;BME280;36217;60.232;24.776;2022-12-29T00:06:31;100483.20;;;-2.06;100.00
49779;BME280;36217;60.232;24.776;2022-12-29T00:08:59;100483.00;;;-2.06;100.00
49779;BME280;36217;60.232;24.776;2022-12-29T00:11:27;100482.93;;;-2.11;100.00
49779;BME280;36217;60.232;24.776;2022-12-29T00:13:54;100481.57;;;-2.06;100.00
49779;BME280;36217;60.232;24.776;2022-12-29T00:16:22;100475.01;;;-1.87;100.00
49779;BME280;36217;60.232;24.776;2022-12-29T00:18:49;100471.36;;;-2.06;100.00
49779;BME280;36217;60.232;24.776;2022-12-29T00:21:19;100472.22;;;-1.85;100.00
49779;BME280;36217;60.232;24.776;2022-12-29T00:23:46;100471.91;;;-1.95;100.00
49779;BME280;36217;60.232;24.776;2022-12-29T00:26:15;100467.08;;;-2.02;100.00
49779;BME280;36217;60.232;24.776;2022-12-29T00:28:43;100465.75;;;-1.90;100.00
49779;BME280;36217;60.232;24.776;2022-12-29T00:31:11;100465.76;;;-1.97;100.00
49779;BME280;36217;60.232;24.776;2022-12-29T00:33:39;100467.77;;;-1.68;100.00
49779;BME280;36217;60.232;24.776;2022-12-29T00:36:10;100469.93;;;-2.01;100.00
49779;BME280;36217;60.232;24.776;2022-12-29T00:38:41;100471.35;;;-2.06;100.00
49779;BME280;36217;60.232;24.776;2022-12-29T00:41:11;100474.85;;;-2.12;100.00
49779;BME280;36217;60.232;24.776;2022-12-29T00:43:39;100470.42;;;-1.90;100.00
49779;BME280;36217;60.232;24.776;2022-12-29T00:46:06;100466.66;;;-2.00;100.00
49779;BME280;36217;60.232;24.776;2022-12-29T00:48:33;100466.58;;;-1.96;100.00
49779;BME280;36217;60.232;24.776;2022-12-29T00:51:00;100470.03;;;-1.72;100.00
49779;BME280;36217;60.232;24.776;2022-12-29T00:53:28;100468.09;;;-1.88;100.00
49779;BME280;36217;60.232;24.776;2022-12-29T00:55:55;100467.99;;;-1.80;100.00
49779;BME280;36217;60.232;24.776;2022-12-29T00:58:22;100464.61;;;-1.67;100.00
49779;BME280;36217;60.232;24.776;2022-12-29T01:00:49;100471.58;;;-1.77;100.00
49779;BME280;36217;60.232;24.776;2022-12-29T01:03:17;100478.37;;;-1.70;100.00
49779;BME280;36217;60.232;24.776;2022-12-29T01:05:44;100479.42;;;-1.68;100.00
49779;BME280;36217;60.232;24.776;2022-12-29T01:08:11;100473.83;;;-1.74;100.00
49779;BME280;36217;60.232;24.776;2022-12-29T01:10:37;100466.89;;;-1.94;100.00
49779;BME280;36217;60.232;24.776;2022-12-29T01:13:04;100458.45;;;-2.01;100.00
49779;BME280;36217;60.232;24.776;2022-12-29T01:15:32;100453.42;;;-1.66;100.00
49779;BME280;36217;60.232;24.776;2022-12-29T01:17:59;100449.82;;;-1.75;100.00
49779;BME280;36217;60.232;24.776;2022-12-29T01:20:26;100450.35;;;-1.63;100.00
49779;BME280;36217;60.232;24.776;2022-12-29T01:22:53;100450.28;;;-1.68;100.00
49779;BME280;36217;60.232;24.776;2022-12-29T01:25:20;100449.12;;;-1.92;100.00
49779;BME280;36217;60.232;24.776;2022-12-29T01:27:47;100444.88;;;-2.11;100.00
49779;BME280;36217;60.232;24.776;2022-12-29T01:30:14;100444.80;;;-1.83;100.00
49779;BME280;36217;60.232;24.776;2022-12-29T01:32:41;100446.30;;;-1.61;100.00
49779;BME280;36217;60.232;24.776;2022-12-29T01:35:08;100448.61;;;-1.83;100.00
49779;BME280;36217;60.232;24.776;2022-12-29T01:37:36;100448.00;;;-1.51;100.00
49779;BME280;36217;60.232;24.776;2022-12-29T01:40:04;100451.12;;;-1.90;100.00
49779;BME280;36217;60.232;24.776;2022-12-29T01:42:31;100447.70;;;-1.91;100.00
49779;BME280;36217;60.232;24.776;2022-12-29T01:45:00;100441.90;;;-1.74;100.00
49779;BME280;36217;60.232;24.776;2022-12-29T01:47:34;100437.37;;;-2.09;100.00
49779;BME280;36217;60.232;24.776;2022-12-29T01:50:07;100437.90;;;-1.55;100.00
49779;BME280;36217;60.232;24.776;2022-12-29T01:52:38;100437.27;;;-2.07;100.00
49779;BME280;36217;60.232;24.776;2022-12-29T01:55:08;100432.80;;;-1.50;100.00
49779;BME280;36217;60.232;24.776;2022-12-29T01:57:41;100432.31;;;-1.97;100.00
49779;BME280;36217;60.232;24.776;2022-12-29T02:00:12;100434.36;;;-1.71;100.00
49779;BME280;36217;60.232;24.776;2022-12-29T02:02:42;100430.45;;;-1.48;100.00
49779;BME280;36217;60.232;24.776;2022-12-29T02:05:25;100427.87;;;-1.78;100.00
49779;BME280;36217;60.232;24.776;2022-12-29T02:07:54;100431.85;;;-1.42;100.00
49779;BME280;36217;60.232;24.776;2022-12-29T02:10:22;100437.13;;;-1.41;100.00
49779;BME280;36217;60.232;24.776;2022-12-29T02:12:50;100441.10;;;-1.71;100.00
49779;BME280;36217;60.232;24.776;2022-12-29T02:15:17;100444.13;;;-1.69;100.00
49779;BME280;36217;60.232;24.776;2022-12-29T02:18:01;100446.98;;;-1.77;100.00
49779;BME280;36217;60.232;24.776;2022-12-29T02:20:47;100449.27;;;-1.41;100.00
49779;BME280;36217;60.232;24.776;2022-12-29T02:23:36;100447.08;;;-1.28;100.00
49779;BME280;36217;60.232;24.776;2022-12-29T02:26:22;100437.12;;;-1.36;100.00
49779;BME280;36217;60.232;24.776;2022-12-29T02:29:05;100432.26;;;-1.43;100.00
49779;BME280;36217;60.232;24.776;2022-12-29T02:31:46;100426.78;;;-1.51;100.00
49779;BME280;36217;60.232;24.776;2022-12-29T02:34:20;100421.31;;;-1.53;100.00
49779;BME280;36217;60.232;24.776;2022-12-29T02:36:58;100417.68;;;-1.81;100.00
49779;BME280;36217;60.232;24.776;2022-12-29T02:39:34;100414.49;;;-1.71;100.00
49779;BME280;36217;60.232;24.776;2022-12-29T02:42:10;100408.56;;;-1.83;100.00
49779;BME280;36217;60.232;24.776;2022-12-29T02:44:51;100405.49;;;-1.30;100.00
49779;BME280;36217;60.232;24.776;2022-12-29T02:47:24;100403.37;;;-1.25;100.00
49779;BME280;36217;60.232;24.776;2022-12-29T02:49:59;100403.86;;;-1.54;100.00
49779;BME280;36217;60.232;24.776;2022-12-29T02:52:31;100405.24;;;-1.35;100.00
49779;BME280;36217;60.232;24.776;2022-12-29T02:55:00;100398.63;;;-1.51;100.00
49779;BME280;36217;60.232;24.776;2022-12-29T02:57:30;100397.45;;;-1.10;100.00
49779;BME280;36217;60.232;24.776;2022-12-29T03:00:03;100399.76;;;-1.57;100.00
49779;BME280;36217;60.232;24.776;2022-12-29T03:02:41;100398.73;;;-1.69;100.00
49779;BME280;36217;60.232;24.776;2022-12-29T03:05:19;100398.56;;;-1.78;100.00
49779;BME280;36217;60.232;24.776;2022-12-29T03:07:54;100404.59;;;-1.12;100.00
49779;BME280;36217;60.232;24.776;2022-12-29T03:10:30;100400.21;;;-1.61;100.00
49779;BME280;36217;60.232;24.776;2022-12-29T03:13:04;100392.91;;;-1.62;100.00
49779;BME280;36217;60.232;24.776;2022-12-29T03:15:44;100389.61;;;-1.10;100.00
49779;BME280;36217;60.232;24.776;2022-12-29T03:18:18;100392.22;;;-1.57;100.00
49779;BME280;36217;60.232;24.776;2022-12-29T03:20:51;100393.03;;;-1.45;100.00
49779;BME280;36217;60.232;24.776;2022-12-29T03:23:20;100391.94;;;-1.38;100.00
49779;BME280;36217;60.232;24.776;2022-12-29T03:25:51;100397.30;;;-1.47;100.00
49779;BME280;36217;60.232;24.776;2022-12-29T03:28:22;100397.80;;;-1.21;100.00
49779;BME280;36217;60.232;24.776;2022-12-29T03:30:51;100396.68;;;-1.35;100.00
49779;BME280;36217;60.232;24.776;2022-12-29T03:33:22;100391.46;;;-1.07;100.00
49779;BME280;36217;60.232;24.776;2022-12-29T03:35:52;100386.74;;;-1.54;100.00
49779;BME280;36217;60.232;24.776;2022-12-29T03:38:25;100385.12;;;-1.33;100.00
49779;BME280;36217;60.232;24.776;2022-12-29T03:40:56;100384.43;;;-1.44;100.00
49779;BME280;36217;60.232;24.776;2022-12-29T03:43:26;100384.40;;;-1.37;100.00
49779;BME280;36217;60.232;24.776;2022-12-29T03:45:53;100388.93;;;-1.37;100.00
49779;BME280;36217;60.232;24.776;2022-12-29T03:48:21;100388.25;;;-1.36;100.00
49779;BME280;36217;60.232;24.776;2022-12-29T03:50:48;100392.53;;;-1.04;100.00
49779;BME280;36217;60.232;24.776;2022-12-29T03:53:15;100393.20;;;-1.22;100.00
49779;BME280;36217;60.232;24.776;2022-12-29T03:55:42;100395.32;;;-1.00;100.00
49779;BME280;36217;60.232;24.776;2022-12-29T03:58:10;100394.70;;;-1.24;100.00
49779;BME280;36217;60.232;24.776;2022-12-29T04:00:37;100400.15;;;-1.15;100.00
49779;BME280;36217;60.232;24.776;2022-12-29T04:03:04;100399.71;;;-1.24;100.00
49779;BME280;36217;60.232;24.776;2022-12-29T04:05:31;100401.48;;;-0.98;100.00
49779;BME280;36217;60.232;24.776;2022-12-29T04:07:58;100402.13;;;-0.63;100.00
49779;BME280;36217;60.232;24.776;2022-12-29T04:10:26;100396.87;;;-1.19;100.00
49779;BME280;36217;60.232;24.776;2022-12-29T04:12:53;100395.83;;;-1.18;100.00
49779;BME280;36217;60.232;24.776;2022-12-29T04:15:20;100397.11;;;-0.87;100.00
49779;BME280;36217;60.232;24.776;2022-12-29T04:17:47;100388.55;;;-1.12;100.00
49779;BME280;36217;60.232;24.776;2022-12-29T04:20:15;100388.00;;;-1.10;100.00
49779;BME280;36217;60.232;24.776;2022-12-29T04:22:42;100391.26;;;-1.06;100.00
49779;BME280;36217;60.232;24.776;2022-12-29T04:25:09;100386.86;;;-1.73;100.00
49779;BME280;36217;60.232;24.776;2022-12-29T04:27:36;100388.21;;;-1.27;100.00
49779;BME280;36217;60.232;24.776;2022-12-29T04:30:04;100381.94;;;-1.04;100.00
49779;BME280;36217;60.232;24.776;2022-12-29T04:32:31;100379.65;;;-0.98;100.00
49779;BME280;36217;60.232;24.776;2022-12-29T04:34:58;100376.32;;;-1.03;100.00
49779;BME280;36217;60.232;24.776;2022-12-29T04:37:26;100373.74;;;-1.04;100.00
49779;BME280;36217;60.232;24.776;2022-12-29T04:39:53;100369.99;;;-0.93;100.00
49779;BME280;36217;60.232;24.776;2022-12-29T04:42:20;100371.42;;;-0.97;100.00
49779;BME280;36217;60.232;24.776;2022-12-29T04:44:47;100373.04;;;-1.07;100.00
49779;BME280;36217;60.232;24.776;2022-12-29T04:47:15;100377.30;;;-0.98;100.00
49779;BME280;36217;60.232;24.776;2022-12-29T04:49:42;100378.74;;;-0.84;100.00
49779;BME280;36217;60.232;24.776;2022-12-29T04:52:09;100380.65;;;-1.10;100.00
49779;BME280;36217;60.232;24.776;2022-12-29T04:54:36;100379.04;;;-0.93;100.00
49779;BME280;36217;60.232;24.776;2022-12-29T04:57:03;100374.95;;;-1.02;100.00
49779;BME280;36217;60.232;24.776;2022-12-29T04:59:30;100373.28;;;-1.03;100.00
49779;BME280;36217;60.232;24.776;2022-12-29T05:01:57;100369.15;;;-0.96;100.00
49779;BME280;36217;60.232;24.776;2022-12-29T05:04:25;100372.16;;;-1.03;100.00
49779;BME280;36217;60.232;24.776;2022-12-29T05:06:52;100374.60;;;-0.95;100.00
49779;BME280;36217;60.232;24.776;2022-12-29T05:09:19;100374.12;;;-0.83;100.00
49779;BME280;36217;60.232;24.776;2022-12-29T05:11:46;100373.45;;;-1.04;100.00
49779;BME280;36217;60.232;24.776;2022-12-29T05:14:14;100372.64;;;-0.79;100.00
49779;BME280;36217;60.232;24.776;2022-12-29T05:16:41;100372.30;;;-1.17;100.00
49779;BME280;36217;60.232;24.776;2022-12-29T05:19:08;100369.73;;;-0.96;100.00
49779;BME280;36217;60.232;24.776;2022-12-29T05:21:35;100370.76;;;-0.98;100.00
49779;BME280;36217;60.232;24.776;2022-12-29T05:24:03;100370.83;;;-0.61;100.00
49779;BME280;36217;60.232;24.776;2022-12-29T05:26:30;100371.10;;;-0.52;100.00
49779;BME280;36217;60.232;24.776;2022-12-29T05:28:57;100372.65;;;-0.79;100.00
49779;BME280;36217;60.232;24.776;2022-12-29T05:31:24;100370.09;;;-0.61;100.00
49779;BME280;36217;60.232;24.776;2022-12-29T05:33:51;100372.92;;;-0.57;100.00
49779;BME280;36217;60.232;24.776;2022-12-29T05:36:19;100367.01;;;-0.78;100.00
49779;BME280;36217;60.232;24.776;2022-12-29T05:38:45;100363.25;;;-0.77;100.00
49779;BME280;36217;60.232;24.776;2022-12-29T05:41:13;100364.02;;;-0.76;100.00
49779;BME280;36217;60.232;24.776;2022-12-29T05:43:40;100364.31;;;-0.80;100.00
49779;BME280;36217;60.232;24.776;2022-12-29T05:46:07;100365.69;;;-0.87;100.00
49779;BME280;36217;60.232;24.776;2022-12-29T05:48:34;100363.14;;;-0.92;100.00
49779;BME280;36217;60.232;24.776;2022-12-29T05:51:02;100361.04;;;-0.82;100.00
49779;BME280;36217;60.232;24.776;2022-12-29T05:53:29;100357.66;;;-0.89;100.00
49779;BME280;36217;60.232;24.776;2022-12-29T05:55:56;100357.15;;;-0.54;100.00
49779;BME280;36217;60.232;24.776;2022-12-29T05:58:23;100352.92;;;-0.83;100.00
49779;BME280;36217;60.232;24.776;2022-12-29T06:00:51;100353.57;;;-0.92;100.00
49779;BME280;36217;60.232;24.776;2022-12-29T06:03:17;100349.99;;;-0.86;100.00
49779;BME280;36217;60.232;24.776;2022-12-29T06:05:45;100344.84;;;-0.76;100.00
49779;BME280;36217;60.232;24.776;2022-12-29T06:08:12;100343.25;;;-1.07;100.00
49779;BME280;36217;60.232;24.776;2022-12-29T06:10:39;100343.19;;;-0.83;100.00
49779;BME280;36217;60.232;24.776;2022-12-29T06:13:06;100346.64;;;-0.80;100.00
49779;BME280;36217;60.232;24.776;2022-12-29T06:15:33;100351.39;;;-0.79;100.00
49779;BME280;36217;60.232;24.776;2022-12-29T06:18:00;100357.19;;;-0.96;100.00
49779;BME280;36217;60.232;24.776;2022-12-29T06:20:28;100358.64;;;-0.76;100.00
49779;BME280;36217;60.232;24.776;2022-12-29T06:22:54;100358.37;;;-0.85;100.00
49779;BME280;36217;60.232;24.776;2022-12-29T06:25:22;100357.99;;;-0.77;100.00
49779;BME280;36217;60.232;24.776;2022-12-29T06:27:49;100360.41;;;-0.72;100.00
49779;BME280;36217;60.232;24.776;2022-12-29T06:30:16;100356.94;;;-0.73;100.00
49779;BME280;36217;60.232;24.776;2022-12-29T06:32:44;100355.60;;;-0.79;100.00
49779;BME280;36217;60.232;24.776;2022-12-29T06:35:11;100359.53;;;-1.02;100.00
49779;BME280;36217;60.232;24.776;2022-12-29T06:37:38;100359.18;;;-0.53;100.00
49779;BME280;36217;60.232;24.776;2022-12-29T06:40:06;100359.39;;;-0.82;100.00
49779;BME280;36217;60.232;24.776;2022-12-29T06:42:33;100358.01;;;-1.10;100.00
49779;BME280;36217;60.232;24.776;2022-12-29T06:45:00;100356.82;;;-1.08;100.00
49779;BME280;36217;60.232;24.776;2022-12-29T06:47:28;100352.80;;;-0.84;100.00
49779;BME280;36217;60.232;24.776;2022-12-29T06:49:55;100349.74;;;-0.79;100.00
49779;BME280;36217;60.232;24.776;2022-12-29T06:52:22;100351.69;;;-0.81;100.00
49779;BME280;36217;60.232;24.776;2022-12-29T06:54:49;100344.85;;;-0.75;100.00
49779;BME280;36217;60.232;24.776;2022-12-29T06:57:17;100344.99;;;-0.77;100.00
49779;BME280;36217;60.232;24.776;2022-12-29T06:59:44;100340.82;;;-0.81;100.00
49779;BME280;36217;60.232;24.776;2022-12-29T07:02:11;100342.05;;;-0.75;100.00
49779;BME280;36217;60.232;24.776;2022-12-29T07:04:38;100343.25;;;-0.57;100.00
49779;BME280;36217;60.232;24.776;2022-12-29T07:07:05;100347.68;;;-0.78;100.00
49779;BME280;36217;60.232;24.776;2022-12-29T07:09:32;100352.08;;;-0.73;100.00
49779;BME280;36217;60.232;24.776;2022-12-29T07:11:59;100355.88;;;-0.69;100.00
49779;BME280;36217;60.232;24.776;2022-12-29T07:14:26;100352.78;;;-0.82;100.00
49779;BME280;36217;60.232;24.776;2022-12-29T07:16:53;100358.38;;;-0.82;100.00
49779;BME280;36217;60.232;24.776;2022-12-29T07:19:20;100356.32;;;-0.94;100.00
49779;BME280;36217;60.232;24.776;2022-12-29T07:21:47;100354.06;;;-0.79;100.00
49779;BME280;36217;60.232;24.776;2022-12-29T07:24:14;100359.92;;;-0.67;100.00
49779;BME280;36217;60.232;24.776;2022-12-29T07:26:41;100359.64;;;-0.80;100.00
49779;BME280;36217;60.232;24.776;2022-12-29T07:29:08;100357.85;;;-0.97;100.00
49779;BME280;36217;60.232;24.776;2022-12-29T07:31:36;100357.26;;;-0.76;100.00
49779;BME280;36217;60.232;24.776;2022-12-29T07:34:03;100353.29;;;-0.74;100.00
49779;BME280;36217;60.232;24.776;2022-12-29T07:36:30;100351.71;;;-0.86;100.00
49779;BME280;36217;60.232;24.776;2022-12-29T07:38:57;100354.91;;;-0.64;100.00
49779;BME280;36217;60.232;24.776;2022-12-29T07:41:25;100353.88;;;-0.74;100.00
49779;BME280;36217;60.232;24.776;2022-12-29T07:43:52;100346.26;;;-0.86;100.00
49779;BME280;36217;60.232;24.776;2022-12-29T07:46:18;100349.93;;;-0.71;100.00
49779;BME280;36217;60.232;24.776;2022-12-29T07:48:46;100353.36;;;-0.83;100.00
49779;BME280;36217;60.232;24.776;2022-12-29T07:51:13;100353.50;;;-1.09;100.00
49779;BME280;36217;60.232;24.776;2022-12-29T07:53:40;100349.97;;;-0.81;100.00
49779;BME280;36217;60.232;24.776;2022-12-29T07:56:07;100351.54;;;-0.83;100.00
49779;BME280;36217;60.232;24.776;2022-12-29T07:58:34;100353.33;;;-0.75;100.00
49779;BME280;36217;60.232;24.776;2022-12-29T08:01:01;100349.14;;;-0.92;100.00
49779;BME280;36217;60.232;24.776;2022-12-29T08:03:29;100350.43;;;-0.33;100.00
49779;BME280;36217;60.232;24.776;2022-12-29T08:05:56;100351.27;;;-0.83;100.00
49779;BME280;36217;60.232;24.776;2022-12-29T08:08:24;100348.18;;;-0.80;100.00
49779;BME280;36217;60.232;24.776;2022-12-29T08:10:51;100342.56;;;-0.70;100.00
49779;BME280;36217;60.232;24.776;2022-12-29T08:13:18;100343.79;;;-0.72;100.00
49779;BME280;36217;60.232;24.776;2022-12-29T08:15:45;100340.96;;;-0.73;100.00
49779;BME280;36217;60.232;24.776;2022-12-29T08:18:12;100337.56;;;-0.76;100.00
49779;BME280;36217;60.232;24.776;2022-12-29T08:20:39;100339.97;;;-0.84;100.00
49779;BME280;36217;60.232;24.776;2022-12-29T08:23:07;100343.78;;;-0.82;100.00
49779;BME280;36217;60.232;24.776;2022-12-29T08:25:33;100346.93;;;-0.63;100.00
49779;BME280;36217;60.232;24.776;2022-12-29T08:28:01;100342.38;;;-0.68;100.00
49779;BME280;36217;60.232;24.776;2022-12-29T08:30:28;100339.03;;;-0.71;100.00
49779;BME280;36217;60.232;24.776;2022-12-29T08:32:55;100337.58;;;-0.96;100.00
49779;BME280;36217;60.232;24.776;2022-12-29T08:35:22;100334.37;;;-0.72;100.00
49779;BME280;36217;60.232;24.776;2022-12-29T08:37:50;100334.66;;;-0.64;100.00
49779;BME280;36217;60.232;24.776;2022-12-29T08:40:17;100338.18;;;-0.67;100.00
49779;BME280;36217;60.232;24.776;2022-12-29T08:42:44;100339.13;;;-0.74;100.00
49779;BME280;36217;60.232;24.776;2022-12-29T08:45:11;100340.87;;;-0.56;100.00
49779;BME280;36217;60.232;24.776;2022-12-29T08:47:38;100340.84;;;-0.58;100.00
49779;BME280;36217;60.232;24.776;2022-12-29T08:50:06;100338.38;;;-0.59;100.00
49779;BME280;36217;60.232;24.776;2022-12-29T08:52:33;100330.46;;;-0.83;100.00
49779;BME280;36217;60.232;24.776;2022-12-29T08:55:01;100334.74;;;-0.60;100.00
49779;BME280;36217;60.232;24.776;2022-12-29T08:57:27;100333.50;;;-0.64;100.00
49779;BME280;36217;60.232;24.776;2022-12-29T08:59:54;100335.33;;;-0.88;100.00
49779;BME280;36217;60.232;24.776;2022-12-29T09:02:21;100341.18;;;-0.91;100.00
49779;BME280;36217;60.232;24.776;2022-12-29T09:04:48;100340.94;;;-0.65;100.00
49779;BME280;36217;60.232;24.776;2022-12-29T09:07:15;100334.43;;;-0.59;100.00
49779;BME280;36217;60.232;24.776;2022-12-29T09:09:42;100326.54;;;-0.69;100.00
49779;BME280;36217;60.232;24.776;2022-12-29T09:12:09;100326.25;;;-0.67;100.00
49779;BME280;36217;60.232;24.776;2022-12-29T09:14:36;100320.92;;;-0.58;100.00
49779;BME280;36217;60.232;24.776;2022-12-29T09:17:03;100321.22;;;-0.63;100.00
49779;BME280;36217;60.232;24.776;2022-12-29T09:19:30;100317.76;;;-0.56;100.00
49779;BME280;36217;60.232;24.776;2022-12-29T09:21:57;100314.35;;;-0.75;100.00
49779;BME280;36217;60.232;24.776;2022-12-29T09:24:24;100318.58;;;-0.61;100.00
49779;BME280;36217;60.232;24.776;2022-12-29T09:26:51;100315.78;;;-0.63;100.00
49779;BME280;36217;60.232;24.776;2022-12-29T09:29:18;100311.63;;;-0.78;100.00
49779;BME280;36217;60.232;24.776;2022-12-29T09:31:45;100313.63;;;-0.73;100.00
49779;BME280;36217;60.232;24.776;2022-12-29T09:34:13;100308.49;;;-1.05;100.00
49779;BME280;36217;60.232;24.776;2022-12-29T09:36:40;100308.67;;;-0.55;100.00
49779;BME280;36217;60.232;24.776;2022-12-29T09:39:07;100304.26;;;-0.57;100.00
49779;BME280;36217;60.232;24.776;2022-12-29T09:41:38;100311.30;;;-0.54;100.00
49779;BME280;36217;60.232;24.776;2022-12-29T09:44:15;100314.63;;;-0.58;100.00
49779;BME280;36217;60.232;24.776;2022-12-29T09:46:46;100320.41;;;-0.69;100.00
49779;BME280;36217;60.232;24.776;2022-12-29T09:49:22;100323.39;;;-0.57;100.00
49779;BME280;36217;60.232;24.776;2022-12-29T09:51:52;100329.30;;;-0.50;100.00
49779;BME280;36217;60.232;24.776;2022-12-29T09:54:34;100328.48;;;-0.29;100.00
49779;BME280;36217;60.232;24.776;2022-12-29T09:57:04;100326.90;;;-0.32;100.00
49779;BME280;36217;60.232;24.776;2022-12-29T09:59:38;100317.51;;;-0.72;100.00
49779;BME280;36217;60.232;24.776;2022-12-29T10:02:27;100311.32;;;-0.17;100.00
49779;BME280;36217;60.232;24.776;2022-12-29T10:04:56;100303.95;;;-0.50;100.00
49779;BME280;36217;60.232;24.776;2022-12-29T10:07:30;100298.32;;;-0.33;100.00
49779;BME280;36217;60.232;24.776;2022-12-29T10:10:07;100292.71;;;-0.28;100.00
49779;BME280;36217;60.232;24.776;2022-12-29T10:12:50;100292.88;;;-0.55;100.00
49779;BME280;36217;60.232;24.776;2022-12-29T10:15:33;100286.26;;;-0.28;100.00
49779;BME280;36217;60.232;24.776;2022-12-29T10:18:13;100282.97;;;-0.59;100.00
49779;BME280;36217;60.232;24.776;2022-12-29T10:20:49;100283.10;;;-0.52;100.00
49779;BME280;36217;60.232;24.776;2022-12-29T10:23:26;100282.45;;;-0.75;100.00
49779;BME280;36217;60.232;24.776;2022-12-29T10:25:55;100283.16;;;-0.77;100.00
49779;BME280;36217;60.232;24.776;2022-12-29T10:28:24;100277.75;;;-0.96;100.00
49779;BME280;36217;60.232;24.776;2022-12-29T10:30:59;100281.45;;;-0.58;100.00
49779;BME280;36217;60.232;24.776;2022-12-29T10:33:34;100280.12;;;-0.32;100.00
49779;BME280;36217;60.232;24.776;2022-12-29T10:36:12;100274.66;;;-0.49;100.00
49779;BME280;36217;60.232;24.776;2022-12-29T10:38:47;100274.37;;;-0.57;100.00
49779;BME280;36217;60.232;24.776;2022-12-29T10:41:20;100270.41;;;-0.58;100.00
49779;BME280;36217;60.232;24.776;2022-12-29T10:43:49;100261.97;;;-0.53;100.00
49779;BME280;36217;60.232;24.776;2022-12-29T10:46:20;100258.45;;;-0.73;100.00
49779;BME280;36217;60.232;24.776;2022-12-29T10:48:49;100259.08;;;-0.43;100.00
49779;BME280;36217;60.232;24.776;2022-12-29T10:51:21;100260.56;;;-0.29;100.00
49779;BME280;36217;60.232;24.776;2022-12-29T10:53:52;100257.21;;;-0.81;100.00
49779;BME280;36217;60.232;24.776;2022-12-29T10:56:29;100256.11;;;-0.72;100.00
49779;BME280;36217;60.232;24.776;2022-12-29T10:59:01;100251.57;;;-0.50;100.00
49779;BME280;36217;60.232;24.776;2022-12-29T11:01:35;100239.30;;;-0.41;100.00
49779;BME280;36217;60.232;24.776;2022-12-29T11:04:07;100232.71;;;-0.70;100.00
49779;BME280;36217;60.232;24.776;2022-12-29T11:06:43;100231.69;;;-0.54;100.00
49779;BME280;36217;60.232;24.776;2022-12-29T11:09:13;100225.72;;;-0.70;100.00
49779;BME280;36217;60.232;24.776;2022-12-29T11:11:41;100224.07;;;-0.25;100.00
49779;BME280;36217;60.232;24.776;2022-12-29T11:14:12;100219.12;;;-0.43;100.00
49779;BME280;36217;60.232;24.776;2022-12-29T11:16:41;100209.64;;;-0.57;100.00
49779;BME280;36217;60.232;24.776;2022-12-29T11:19:20;100201.12;;;-0.60;100.00
49779;BME280;36217;60.232;24.776;2022-12-29T11:21:48;100192.04;;;-0.62;100.00
49779;BME280;36217;60.232;24.776;2022-12-29T11:24:21;100201.42;;;-0.74;100.00
49779;BME280;36217;60.232;24.776;2022-12-29T11:26:50;100200.97;;;-0.46;100.00
49779;BME280;36217;60.232;24.776;2022-12-29T11:29:23;100198.39;;;-0.44;100.00
49779;BME280;36217;60.232;24.776;2022-12-29T11:31:52;100192.07;;;-0.68;100.00
49779;BME280;36217;60.232;24.776;2022-12-29T11:34:23;100192.05;;;-0.74;100.00
49779;BME280;36217;60.232;24.776;2022-12-29T11:36:52;100194.50;;;-0.74;100.00
49779;BME280;36217;60.232;24.776;2022-12-29T11:39:28;100192.46;;;-0.45;100.00
49779;BME280;36217;60.232;24.776;2022-12-29T11:41:57;100188.18;;;-0.31;100.00
49779;BME280;36217;60.232;24.776;2022-12-29T11:44:25;100186.50;;;-0.07;100.00
49779;BME280;36217;60.232;24.776;2022-12-29T11:46:54;100182.77;;;-0.25;100.00
49779;BME280;36217;60.232;24.776;2022-12-29T11:49:23;100183.89;;;-0.11;100.00
49779;BME280;36217;60.232;24.776;2022-12-29T11:51:52;100182.32;;;-0.24;100.00
49779;BME280;36217;60.232;24.776;2022-12-29T11:54:24;100180.13;;;-0.69;100.00
49779;BME280;36217;60.232;24.776;2022-12-29T11:56:52;100172.30;;;-0.53;100.00
49779;BME280;36217;60.232;24.776;2022-12-29T11:59:36;100164.07;;;-0.36;100.00
49779;BME280;36217;60.232;24.776;2022-12-29T12:02:15;100161.19;;;-0.71;100.00
49779;BME280;36217;60.232;24.776;2022-12-29T12:04:49;100148.77;;;-0.37;100.00
49779;BME280;36217;60.232;24.776;2022-12-29T12:07:20;100147.94;;;-0.73;100.00
49779;BME280;36217;60.232;24.776;2022-12-29T12:09:51;100145.86;;;-0.66;100.00
49779;BME280;36217;60.232;24.776;2022-12-29T12:12:24;100147.67;;;-0.28;100.00
49779;BME280;36217;60.232;24.776;2022-12-29T12:14:56;100151.50;;;-0.36;100.00
49779;BME280;36217;60.232;24.776;2022-12-29T12:17:28;100157.52;;;-0.47;100.00
49779;BME280;36217;60.232;24.776;2022-12-29T12:19:59;100160.10;;;-0.53;100.00
49779;BME280;36217;60.232;24.776;2022-12-29T12:22:32;100161.32;;;-0.47;100.00
49779;BME280;36217;60.232;24.776;2022-12-29T12:25:03;100160.53;;;-0.38;100.00
49779;BME280;36217;60.232;24.776;2022-12-29T12:27:40;100159.26;;;-0.38;100.00
49779;BME280;36217;60.232;24.776;2022-12-29T12:30:13;100156.68;;;-0.24;100.00
49779;BME280;36217;60.232;24.776;2022-12-29T12:32:46;100151.68;;;-0.38;100.00
49779;BME280;36217;60.232;24.776;2022-12-29T12:35:19;100156.95;;;-0.50;100.00
49779;BME280;36217;60.232;24.776;2022-12-29T12:38:01;100156.76;;;-0.64;100.00
49779;BME280;36217;60.232;24.776;2022-12-29T12:40:49;100159.21;;;-0.48;100.00
49779;BME280;36217;60.232;24.776;2022-12-29T12:43:36;100150.46;;;-0.41;100.00